createdAt,value
2023-03-20T00:02:21.847Z,12.00
2023-03-20T00:04:50.530Z,12.00
2023-03-20T00:07:19.100Z,12.00
2023-03-20T00:09:47.893Z,11.90
2023-03-20T00:12:19.952Z,11.90
2023-03-20T00:14:49.851Z,12.00
2023-03-20T00:17:21.536Z,11.90
2023-03-20T00:19:50.016Z,11.90
2023-03-20T00:22:18.581Z,12.00
2023-03-20T00:24:47.563Z,12.00
2023-03-20T00:27:17.505Z,12.00
2023-03-20T00:29:46.604Z,11.90
2023-03-20T00:32:16.921Z,11.90
2023-03-20T00:34:45.467Z,11.70
2023-03-20T00:37:15.014Z,11.70
2023-03-20T00:39:43.653Z,11.60
2023-03-20T00:42:20.954Z,11.60
2023-03-20T00:44:55.869Z,11.70
2023-03-20T00:47:30.249Z,11.70
2023-03-20T00:49:59.073Z,11.70
2023-03-20T00:52:27.688Z,11.80
2023-03-20T00:54:56.102Z,11.80
2023-03-20T00:57:27.088Z,11.80
2023-03-20T01:00:00.591Z,11.90
2023-03-20T01:02:31.537Z,11.90
2023-03-20T01:05:01.809Z,11.90
2023-03-20T01:07:30.557Z,11.90
2023-03-20T01:09:59.057Z,11.80
2023-03-20T01:12:28.359Z,11.90
2023-03-20T01:14:58.956Z,11.90
2023-03-20T01:17:30.925Z,11.90
2023-03-20T01:19:59.455Z,11.90
2023-03-20T01:22:28.028Z,11.80
2023-03-20T01:24:56.493Z,11.80
2023-03-20T01:27:46.077Z,11.80
2023-03-20T01:30:20.613Z,11.80
2023-03-20T01:32:51.536Z,11.90
2023-03-20T01:35:23.219Z,11.80
2023-03-20T01:37:52.430Z,11.90
2023-03-20T01:40:35.481Z,11.80
2023-03-20T01:43:04.457Z,11.90
2023-03-20T01:45:36.428Z,11.90
2023-03-20T01:48:18.129Z,11.90
2023-03-20T01:50:46.652Z,11.90
2023-03-20T01:53:19.310Z,11.90
2023-03-20T01:55:58.418Z,11.90
2023-03-20T01:58:37.454Z,11.90
2023-03-20T02:01:07.337Z,11.80
2023-03-20T02:03:38.341Z,11.80
2023-03-20T02:06:22.027Z,11.80
2023-03-20T02:09:16.802Z,11.80
2023-03-20T02:11:47.685Z,11.70
2023-03-20T02:14:18.380Z,11.70
2023-03-20T02:16:58.254Z,11.70
2023-03-20T02:20:04.282Z,11.70
2023-03-20T02:23:21.791Z,11.70
2023-03-20T02:26:23.320Z,11.70
2023-03-20T02:29:46.664Z,11.60
2023-03-20T02:33:03.032Z,11.60
2023-03-20T02:36:18.401Z,11.60
2023-03-20T02:38:59.914Z,11.60
2023-03-20T02:41:33.682Z,11.60
2023-03-20T02:44:08.598Z,11.60
2023-03-20T02:46:48.172Z,11.60
2023-03-20T02:49:33.600Z,11.50
2023-03-20T02:52:06.000Z,11.40
2023-03-20T02:54:45.230Z,11.40
2023-03-20T02:57:20.905Z,11.40
2023-03-20T02:59:58.243Z,11.30
2023-03-20T03:02:34.530Z,11.40
2023-03-20T03:05:09.457Z,11.30
2023-03-20T03:07:41.714Z,11.40
2023-03-20T03:10:16.824Z,11.40
2023-03-20T03:12:50.047Z,11.40
2023-03-20T03:15:22.367Z,11.40
2023-03-20T03:17:51.244Z,11.40
2023-03-20T03:20:26.289Z,11.40
2023-03-20T03:22:54.698Z,11.50
2023-03-20T03:25:27.744Z,11.50
2023-03-20T03:28:05.558Z,11.50
2023-03-20T03:30:37.635Z,11.40
2023-03-20T03:33:19.727Z,11.40
2023-03-20T03:35:52.582Z,11.50
2023-03-20T03:38:32.834Z,11.50
2023-03-20T03:41:20.584Z,11.50
2023-03-20T03:43:57.125Z,11.50
2023-03-20T03:46:30.865Z,11.50
2023-03-20T03:49:00.790Z,11.50
2023-03-20T03:51:32.828Z,11.50
2023-03-20T03:54:11.664Z,11.50
2023-03-20T03:56:44.383Z,11.50
2023-03-20T03:59:20.307Z,11.50
2023-03-20T04:01:51.156Z,11.50
2023-03-20T04:04:22.188Z,11.50
2023-03-20T04:06:50.847Z,11.50
2023-03-20T04:09:19.327Z,11.50
2023-03-20T04:11:52.061Z,11.50
2023-03-20T04:14:21.859Z,11.50
2023-03-20T04:16:50.510Z,11.50
2023-03-20T04:19:18.959Z,11.50
2023-03-20T04:21:47.749Z,11.50
2023-03-20T04:24:16.943Z,11.50
2023-03-20T04:26:46.178Z,11.60
2023-03-20T04:29:16.084Z,11.60
2023-03-20T04:31:57.183Z,11.60
2023-03-20T04:34:44.903Z,11.60
2023-03-20T04:37:30.152Z,11.60
2023-03-20T04:40:08.177Z,11.60
2023-03-20T04:42:37.082Z,11.60
2023-03-20T04:45:10.917Z,11.60
2023-03-20T04:47:40.805Z,11.60
2023-03-20T04:50:10.459Z,11.50
2023-03-20T04:52:39.109Z,11.40
2023-03-20T04:55:09.036Z,11.40
2023-03-20T04:57:38.702Z,11.50
2023-03-20T05:00:10.007Z,11.50
2023-03-20T05:02:39.585Z,11.50
2023-03-20T05:05:09.550Z,11.50
2023-03-20T05:07:38.677Z,11.50
2023-03-20T05:10:11.775Z,11.50
2023-03-20T05:12:58.314Z,11.50
2023-03-20T05:15:46.883Z,11.50
2023-03-20T05:18:38.033Z,11.50
2023-03-20T05:21:25.890Z,11.50
2023-03-20T05:24:13.041Z,11.40
2023-03-20T05:26:58.817Z,11.40
2023-03-20T05:29:45.960Z,11.40
2023-03-20T05:32:24.515Z,11.40
2023-03-20T05:35:16.067Z,11.50
2023-03-20T05:38:04.344Z,11.40
2023-03-20T05:40:49.951Z,11.40
2023-03-20T05:43:41.268Z,11.40
2023-03-20T05:46:24.370Z,11.40
2023-03-20T05:49:23.411Z,11.40
2023-03-20T05:52:15.055Z,11.40
2023-03-20T05:55:05.888Z,11.40
2023-03-20T05:57:49.936Z,11.40
2023-03-20T06:00:36.612Z,11.40
2023-03-20T06:03:25.607Z,11.40
2023-03-20T06:06:07.258Z,11.40
2023-03-20T06:08:37.421Z,11.50
2023-03-20T06:11:07.532Z,11.50
2023-03-20T06:13:38.693Z,11.60
2023-03-20T06:16:09.001Z,11.60
2023-03-20T06:18:39.243Z,11.40
2023-03-20T06:21:12.987Z,11.40
2023-03-20T06:23:42.072Z,11.30
2023-03-20T06:26:12.086Z,11.30
2023-03-20T06:29:09.501Z,11.20
2023-03-20T06:31:38.589Z,11.20
2023-03-20T06:34:11.272Z,11.30
2023-03-20T06:36:47.027Z,11.30
2023-03-20T06:39:21.062Z,11.30
2023-03-20T06:41:50.133Z,11.30
2023-03-20T06:44:20.165Z,11.40
2023-03-20T06:47:11.760Z,11.40
2023-03-20T06:49:40.617Z,11.40
2023-03-20T06:52:14.721Z,11.40
2023-03-20T06:54:43.366Z,11.50
2023-03-20T06:57:15.017Z,11.50
2023-03-20T07:02:31.492Z,11.50
2023-03-20T07:05:00.643Z,11.50
2023-03-20T07:07:31.326Z,11.40
2023-03-20T07:10:00.176Z,11.50
2023-03-20T07:12:29.471Z,11.50
2023-03-20T07:15:01.300Z,11.40
2023-03-20T07:17:31.266Z,11.40
2023-03-20T07:19:59.842Z,11.40
2023-03-20T07:22:31.489Z,11.40
2023-03-20T07:25:42.995Z,11.40
2023-03-20T07:28:16.599Z,11.40
2023-03-20T07:30:51.675Z,11.30
2023-03-20T07:33:21.165Z,11.30
2023-03-20T07:35:53.752Z,11.40
2023-03-20T07:38:24.677Z,11.30
2023-03-20T07:41:06.006Z,11.30
2023-03-20T07:43:36.456Z,11.40
2023-03-20T07:46:25.703Z,11.30
2023-03-20T07:48:56.691Z,11.40
2023-03-20T07:51:25.650Z,11.40
2023-03-20T07:53:55.599Z,11.40
2023-03-20T07:56:24.416Z,11.40
2023-03-20T07:58:53.160Z,11.40
2023-03-20T08:01:21.820Z,11.40
2023-03-20T08:03:50.499Z,11.40
2023-03-20T08:06:19.279Z,11.40
2023-03-20T08:08:47.905Z,11.40
2023-03-20T08:11:17.844Z,11.40
2023-03-20T08:13:46.701Z,11.40
2023-03-20T08:16:15.263Z,11.40
2023-03-20T08:18:43.785Z,11.50
2023-03-20T08:21:12.235Z,11.50
2023-03-20T08:23:40.814Z,11.50
2023-03-20T08:26:09.591Z,11.50
2023-03-20T08:28:47.535Z,11.50
2023-03-20T08:31:17.865Z,11.50
2023-03-20T08:33:46.886Z,11.50
2023-03-20T08:36:16.317Z,11.50
2023-03-20T08:38:45.054Z,11.50
2023-03-20T08:41:13.565Z,11.40
2023-03-20T08:43:43.652Z,11.30
2023-03-20T08:46:12.153Z,11.30
2023-03-20T08:48:40.638Z,11.40
2023-03-20T08:51:09.489Z,11.30
2023-03-20T08:53:38.114Z,11.30
2023-03-20T08:56:07.536Z,11.30
2023-03-20T08:58:36.128Z,11.30
2023-03-20T09:01:08.514Z,11.10
2023-03-20T09:03:37.701Z,11.20
2023-03-20T09:06:08.248Z,11.20
2023-03-20T09:08:37.274Z,11.40
2023-03-20T09:11:07.437Z,11.40
2023-03-20T09:13:36.059Z,11.40
2023-03-20T09:16:06.848Z,11.40
2023-03-20T09:18:35.496Z,11.50
2023-03-20T09:21:03.974Z,11.40
2023-03-20T09:23:33.236Z,11.40
2023-03-20T09:26:01.763Z,11.40
2023-03-20T09:28:30.317Z,11.40
2023-03-20T09:30:59.694Z,11.40
2023-03-20T09:33:30.080Z,11.40
2023-03-20T09:35:58.652Z,11.50
2023-03-20T09:38:27.157Z,11.50
2023-03-20T09:40:57.857Z,11.50
2023-03-20T09:43:39.548Z,11.40
2023-03-20T09:46:21.403Z,11.50
2023-03-20T09:48:58.022Z,11.50
2023-03-20T09:51:35.758Z,11.60
2023-03-20T09:54:08.575Z,11.80
2023-03-20T09:56:38.194Z,11.80
2023-03-20T09:59:08.005Z,11.90
2023-03-20T10:01:45.754Z,11.90
2023-03-20T10:04:15.668Z,12.00
2023-03-20T10:06:44.335Z,12.00
2023-03-20T10:09:17.071Z,12.00
2023-03-20T10:12:08.427Z,11.90
2023-03-20T10:14:45.560Z,12.00
2023-03-20T10:17:27.145Z,11.90
2023-03-20T10:19:59.707Z,11.80
2023-03-20T10:22:33.731Z,11.90
2023-03-20T10:25:07.608Z,11.90
2023-03-20T10:27:40.760Z,11.90
2023-03-20T10:30:23.071Z,12.00
2023-03-20T10:33:01.745Z,12.00
2023-03-20T10:35:40.494Z,12.00
2023-03-20T10:38:20.029Z,12.00
2023-03-20T10:40:48.560Z,12.00
2023-03-20T10:43:20.886Z,12.10
2023-03-20T10:45:53.467Z,12.20
2023-03-20T10:48:27.430Z,12.20
2023-03-20T10:50:59.723Z,12.20
2023-03-20T10:53:36.321Z,12.20
2023-03-20T10:56:08.233Z,12.20
2023-03-20T10:58:41.012Z,12.20
2023-03-20T11:01:09.684Z,12.30
2023-03-20T11:03:40.012Z,12.40
2023-03-20T11:06:18.242Z,12.60
2023-03-20T11:08:52.109Z,12.60
2023-03-20T11:11:25.283Z,12.60
2023-03-20T11:13:54.194Z,12.60
2023-03-20T11:16:25.132Z,12.60
2023-03-20T11:18:55.321Z,12.60
2023-03-20T11:21:28.941Z,12.50
2023-03-20T11:23:57.731Z,12.50
2023-03-20T11:26:37.200Z,12.40
2023-03-20T11:29:08.866Z,12.50
2023-03-20T11:31:39.395Z,12.60
2023-03-20T11:34:26.710Z,12.70
2023-03-20T11:37:09.803Z,12.80
2023-03-20T11:39:40.972Z,12.90
2023-03-20T11:42:25.205Z,13.00
2023-03-20T11:45:02.267Z,13.10
2023-03-20T11:47:34.883Z,13.10
2023-03-20T11:50:05.710Z,13.10
2023-03-20T11:52:38.448Z,13.10
2023-03-20T11:55:21.448Z,13.00
2023-03-20T11:57:50.893Z,12.80
2023-03-20T12:00:22.592Z,12.90
2023-03-20T12:02:51.776Z,13.00
2023-03-20T12:05:29.756Z,13.00
2023-03-20T12:08:03.355Z,13.00
2023-03-20T12:10:37.692Z,13.10
2023-03-20T12:13:12.262Z,13.20
2023-03-20T12:15:44.720Z,13.30
2023-03-20T12:18:16.914Z,13.30
2023-03-20T12:20:51.358Z,13.30
2023-03-20T12:23:32.279Z,13.30
2023-03-20T12:26:07.396Z,13.30
2023-03-20T12:28:42.672Z,13.30
2023-03-20T12:31:26.316Z,13.30
2023-03-20T12:34:00.122Z,13.30
2023-03-20T12:36:33.473Z,13.40
2023-03-20T12:39:07.692Z,13.30
2023-03-20T12:41:46.960Z,13.30
2023-03-20T12:44:29.970Z,13.10
2023-03-20T12:47:09.426Z,12.80
2023-03-20T12:49:47.791Z,12.70
2023-03-20T12:52:24.218Z,12.70
2023-03-20T12:55:27.056Z,12.70
2023-03-20T12:58:19.832Z,12.70
2023-03-20T13:00:55.853Z,12.90
2023-03-20T13:03:49.153Z,13.00
2023-03-20T13:06:24.917Z,13.10
2023-03-20T13:09:15.371Z,13.30
2023-03-20T13:11:50.170Z,13.40
2023-03-20T13:14:24.767Z,13.60
2023-03-20T13:16:58.683Z,13.70
2023-03-20T13:19:35.049Z,14.00
2023-03-20T13:22:08.189Z,14.20
2023-03-20T13:24:42.289Z,14.30
2023-03-20T13:27:28.502Z,14.20
2023-03-20T13:30:03.153Z,14.30
2023-03-20T13:32:47.145Z,14.70
2023-03-20T13:35:24.837Z,14.80
2023-03-20T13:37:57.988Z,14.80
2023-03-20T13:40:29.156Z,14.80
2023-03-20T13:43:07.685Z,14.90
2023-03-20T13:45:38.938Z,15.00
2023-03-20T13:48:25.152Z,15.10
2023-03-20T13:51:02.244Z,15.20
2023-03-20T13:53:38.562Z,15.30
2023-03-20T13:56:14.217Z,15.30
2023-03-20T13:59:01.161Z,15.40
2023-03-20T14:01:39.780Z,15.40
2023-03-20T14:04:15.007Z,15.50
2023-03-20T14:06:50.996Z,15.40
2023-03-20T14:09:34.880Z,15.40
2023-03-20T14:12:07.695Z,15.50
2023-03-20T14:14:44.704Z,15.60
2023-03-20T14:17:22.437Z,15.60
2023-03-20T14:19:52.229Z,15.60
2023-03-20T14:22:24.064Z,15.80
2023-03-20T14:24:57.305Z,15.80
2023-03-20T14:27:43.301Z,15.80
2023-03-20T14:30:43.090Z,15.80
2023-03-20T14:33:27.639Z,15.80
2023-03-20T14:36:28.540Z,16.00
2023-03-20T14:39:06.633Z,16.10
2023-03-20T14:41:42.858Z,16.00
2023-03-20T14:44:27.971Z,15.60
2023-03-20T14:47:03.824Z,15.10
2023-03-20T14:49:50.626Z,14.80
2023-03-20T14:52:34.956Z,15.20
2023-03-20T14:55:30.562Z,15.60
2023-03-20T14:58:03.269Z,16.00
2023-03-20T15:00:36.675Z,16.10
2023-03-20T15:03:10.751Z,16.20
2023-03-20T15:05:42.220Z,16.00
2023-03-20T15:08:14.693Z,16.00
2023-03-20T15:10:48.762Z,15.90
2023-03-20T15:13:18.943Z,15.90
2023-03-20T15:15:55.881Z,15.80
2023-03-20T15:18:27.953Z,15.80
2023-03-20T15:20:58.665Z,15.70
2023-03-20T15:23:27.207Z,15.60
2023-03-20T15:25:55.914Z,15.60
2023-03-20T15:28:26.612Z,15.50
2023-03-20T15:30:58.383Z,15.50
2023-03-20T15:33:32.052Z,15.30
2023-03-20T15:36:09.658Z,15.20
2023-03-20T15:38:38.467Z,15.10
2023-03-20T15:41:08.082Z,15.30
2023-03-20T15:43:38.310Z,15.40
2023-03-20T15:46:17.931Z,15.40
2023-03-20T15:48:51.761Z,15.30
2023-03-20T15:51:25.682Z,15.10
2023-03-20T15:53:54.460Z,15.10
2023-03-20T15:56:26.776Z,15.10
2023-03-20T15:58:57.834Z,15.10
2023-03-20T16:01:27.669Z,14.90
2023-03-20T16:04:00.059Z,14.40
2023-03-20T16:06:29.438Z,14.00
2023-03-20T16:08:59.691Z,13.90
2023-03-20T16:11:39.039Z,13.80
2023-03-20T16:14:09.238Z,14.00
2023-03-20T16:16:38.404Z,14.20
2023-03-20T16:19:09.390Z,14.20
2023-03-20T16:21:41.626Z,14.30
2023-03-20T16:24:16.085Z,14.20
2023-03-20T16:26:48.977Z,14.10
2023-03-20T16:29:18.839Z,14.00
2023-03-20T16:31:53.856Z,14.00
2023-03-20T16:34:26.730Z,14.00
2023-03-20T16:36:58.400Z,14.10
2023-03-20T16:39:29.536Z,14.20
2023-03-20T16:42:04.283Z,14.20
2023-03-20T16:44:37.243Z,14.10
2023-03-20T16:47:18.246Z,14.00
2023-03-20T16:50:13.585Z,13.80
2023-03-20T16:52:46.072Z,13.80
2023-03-20T16:55:17.944Z,13.80
2023-03-20T16:57:50.778Z,13.70
2023-03-20T17:00:27.737Z,13.70
2023-03-20T17:03:02.260Z,13.80
2023-03-20T17:05:57.920Z,13.80
2023-03-20T17:08:38.648Z,13.70
2023-03-20T17:11:13.180Z,13.50
2023-03-20T17:13:42.659Z,13.40
2023-03-20T17:16:17.216Z,13.40
2023-03-20T17:18:47.130Z,13.30
2023-03-20T17:21:17.110Z,13.10
2023-03-20T17:23:45.607Z,12.70
2023-03-20T17:26:14.541Z,12.50
2023-03-20T17:28:43.481Z,12.30
2023-03-20T17:31:15.000Z,12.30
2023-03-20T17:33:43.862Z,12.40
2023-03-20T17:36:20.174Z,12.50
2023-03-20T17:38:48.689Z,12.40
2023-03-20T17:41:18.439Z,12.30
2023-03-20T17:43:47.561Z,12.30
2023-03-20T17:46:20.137Z,12.30
2023-03-20T17:48:49.235Z,12.30
2023-03-20T17:51:19.013Z,12.20
2023-03-20T17:53:47.560Z,11.90
2023-03-20T17:56:17.456Z,11.60
2023-03-20T17:58:46.166Z,11.30
2023-03-20T18:01:15.182Z,11.30
2023-03-20T18:03:44.186Z,11.40
2023-03-20T18:06:21.783Z,11.60
2023-03-20T18:08:50.402Z,11.60
2023-03-20T18:11:19.026Z,11.40
2023-03-20T18:13:47.622Z,11.30
2023-03-20T18:16:19.262Z,11.30
2023-03-20T18:18:48.392Z,11.30
2023-03-20T18:21:19.494Z,11.40
2023-03-20T18:23:48.576Z,11.40
2023-03-20T18:26:20.804Z,11.40
2023-03-20T18:28:51.048Z,11.40
2023-03-20T18:31:20.103Z,11.40
2023-03-20T18:33:49.486Z,11.30
2023-03-20T18:36:21.066Z,11.20
2023-03-20T18:38:49.896Z,11.20
2023-03-20T18:41:18.478Z,11.10
2023-03-20T18:43:47.355Z,11.00
2023-03-20T18:46:16.765Z,10.90
2023-03-20T18:48:45.873Z,10.80
2023-03-20T18:51:15.393Z,10.80
2023-03-20T18:53:45.223Z,10.80
2023-03-20T18:56:16.107Z,10.80
2023-03-20T18:58:45.359Z,10.80
2023-03-20T19:01:15.734Z,10.70
2023-03-20T19:03:45.666Z,10.70
2023-03-20T19:06:16.363Z,10.70
2023-03-20T19:08:47.517Z,10.60
2023-03-20T19:11:19.641Z,10.60
2023-03-20T19:13:52.252Z,10.60
2023-03-20T19:16:24.548Z,10.50
2023-03-20T19:18:54.071Z,10.40
2023-03-20T19:21:26.303Z,10.40
2023-03-20T19:23:57.370Z,10.40
2023-03-20T19:26:27.567Z,10.30
2023-03-20T19:28:57.913Z,10.30
2023-03-20T19:31:27.297Z,10.20
2023-03-20T19:33:56.801Z,10.10
2023-03-20T19:36:29.041Z,10.10
2023-03-20T19:39:00.582Z,10.10
2023-03-20T19:41:32.449Z,10.10
2023-03-20T19:44:01.641Z,10.20
2023-03-20T19:46:45.759Z,10.10
2023-03-20T19:49:19.646Z,10.10
2023-03-20T19:51:49.320Z,10.10
2023-03-20T19:54:19.385Z,10.10
2023-03-20T19:56:48.023Z,10.00
2023-03-20T19:59:17.199Z,10.00
2023-03-20T20:01:46.918Z,9.90
2023-03-20T20:04:16.259Z,9.90
2023-03-20T20:06:47.532Z,9.90
2023-03-20T20:09:18.796Z,9.80
2023-03-20T20:11:47.358Z,9.80
2023-03-20T20:14:15.907Z,9.80
2023-03-20T20:16:45.747Z,9.70
2023-03-20T20:19:14.793Z,9.60
2023-03-20T20:24:33.372Z,9.50
2023-03-20T20:27:16.377Z,9.40
2023-03-20T20:29:49.915Z,9.40
2023-03-20T20:32:19.958Z,9.40
2023-03-20T20:40:36.051Z,9.30
2023-03-20T20:43:10.048Z,9.30
2023-03-20T20:45:40.254Z,9.30
2023-03-20T20:48:10.375Z,9.30
2023-03-20T20:50:40.901Z,9.20
2023-03-20T20:53:10.581Z,9.20
2023-03-20T20:55:41.020Z,9.20
2023-03-20T20:58:10.152Z,9.20
2023-03-20T21:00:50.174Z,9.20
2023-03-20T21:03:21.744Z,9.20
2023-03-20T21:05:51.179Z,9.20
2023-03-20T21:08:19.686Z,9.20
2023-03-20T21:10:50.885Z,9.10
2023-03-20T21:13:19.410Z,9.10
2023-03-20T21:15:48.263Z,9.10
2023-03-20T21:18:16.825Z,9.00
2023-03-20T21:21:07.778Z,9.00
2023-03-20T21:23:36.263Z,9.00
2023-03-20T21:26:06.711Z,9.00
2023-03-20T21:28:36.056Z,9.00
2023-03-20T21:31:23.499Z,9.00
2023-03-20T21:33:54.692Z,9.00
2023-03-20T21:36:23.821Z,8.90
2023-03-20T21:39:09.421Z,8.90
2023-03-20T21:41:41.092Z,8.90
2023-03-20T21:44:16.734Z,8.90
2023-03-20T21:47:22.736Z,8.80
2023-03-20T21:53:00.376Z,8.80
2023-03-20T21:58:44.405Z,8.70
2023-03-20T22:01:39.771Z,8.70
2023-03-20T22:10:10.955Z,8.60
2023-03-20T22:15:46.755Z,8.50
2023-03-20T22:24:05.778Z,8.60
2023-03-20T22:29:45.298Z,8.60
2023-03-20T22:35:22.864Z,8.60
2023-03-20T22:44:04.767Z,8.60
2023-03-20T22:46:05.436Z,8.60
2023-03-20T22:48:35.806Z,8.50
2023-03-20T22:51:04.869Z,8.50
2023-03-20T22:53:33.844Z,8.50
2023-03-20T22:56:02.722Z,8.40
2023-03-20T22:58:31.285Z,8.40
2023-03-20T23:00:59.885Z,8.40
2023-03-20T23:03:41.530Z,8.40
2023-03-20T23:06:20.053Z,8.40
2023-03-20T23:08:55.163Z,8.40
2023-03-20T23:11:25.103Z,8.40
2023-03-20T23:13:54.244Z,8.30
2023-03-20T23:16:23.100Z,8.50
2023-03-20T23:18:51.878Z,8.50
2023-03-20T23:21:22.045Z,8.50
2023-03-20T23:23:50.564Z,8.60
2023-03-20T23:26:21.498Z,8.50
2023-03-20T23:28:52.683Z,8.50
2023-03-20T23:31:23.053Z,8.50
2023-03-20T23:33:54.131Z,8.40
2023-03-20T23:36:36.101Z,8.40
2023-03-20T23:39:06.223Z,8.40
2023-03-20T23:44:24.198Z,8.30
2023-03-20T23:46:53.084Z,8.30
2023-03-20T23:49:21.490Z,8.30
2023-03-20T23:51:51.232Z,8.20
2023-03-20T23:54:19.570Z,8.20
2023-03-20T23:56:48.745Z,8.10
2023-03-20T23:59:24.266Z,8.10
